地図

経路データ

SID SEASON NUMBER BASIN SUBBASIN NAME ISO_TIME NATURE LAT LON WMO_WIND WMO_PRES WMO_AGENCY TRACK_TYPE DIST2LAND LANDFALL IFLAG USA_AGENCY USA_ATCF_ID USA_LAT USA_LON USA_RECORD USA_STATUS USA_WIND USA_PRES USA_SSHS USA_R34_NE USA_R34_SE USA_R34_SW USA_R34_NW USA_R50_NE USA_R50_SE USA_R50_SW USA_R50_NW USA_R64_NE USA_R64_SE USA_R64_SW USA_R64_NW USA_POCI USA_ROCI USA_RMW USA_EYE TOKYO_LAT TOKYO_LON TOKYO_GRADE TOKYO_WIND TOKYO_PRES TOKYO_R50_DIR TOKYO_R50_LONG TOKYO_R50_SHORT TOKYO_R30_DIR TOKYO_R30_LONG TOKYO_R30_SHORT TOKYO_LAND CMA_LAT CMA_LON CMA_CAT CMA_WIND CMA_PRES HKO_LAT HKO_LON HKO_CAT HKO_WIND HKO_PRES NEWDELHI_LAT NEWDELHI_LON NEWDELHI_GRADE NEWDELHI_WIND NEWDELHI_PRES NEWDELHI_CI NEWDELHI_DP NEWDELHI_POCI REUNION_LAT REUNION_LON REUNION_TYPE REUNION_WIND REUNION_PRES REUNION_TNUM REUNION_CI REUNION_RMW REUNION_R34_NE REUNION_R34_SE REUNION_R34_SW REUNION_R34_NW REUNION_R50_NE REUNION_R50_SE REUNION_R50_SW REUNION_R50_NW REUNION_R64_NE REUNION_R64_SE REUNION_R64_SW REUNION_R64_NW BOM_LAT BOM_LON BOM_TYPE BOM_WIND BOM_PRES BOM_TNUM BOM_CI BOM_RMW BOM_R34_NE BOM_R34_SE BOM_R34_SW BOM_R34_NW BOM_R50_NE BOM_R50_SE BOM_R50_SW BOM_R50_NW BOM_R64_NE BOM_R64_SE BOM_R64_SW BOM_R64_NW BOM_ROCI BOM_POCI BOM_EYE BOM_POS_METHOD BOM_PRES_METHOD NADI_LAT NADI_LON NADI_CAT NADI_WIND NADI_PRES WELLINGTON_LAT WELLINGTON_LON WELLINGTON_WIND WELLINGTON_PRES DS824_LAT DS824_LON DS824_STAGE DS824_WIND DS824_PRES TD9636_LAT TD9636_LON TD9636_STAGE TD9636_WIND TD9636_PRES TD9635_LAT TD9635_LON TD9635_WIND TD9635_PRES TD9635_ROCI NEUMANN_LAT NEUMANN_LON NEUMANN_CLASS NEUMANN_WIND NEUMANN_PRES MLC_LAT MLC_LON MLC_CLASS MLC_WIND MLC_PRES USA_GUST BOM_GUST BOM_GUST_PER REUNION_GUST REUNION_GUST_PER USA_SEAHGT USA_SEARAD_NE USA_SEARAD_SE USA_SEARAD_SW USA_SEARAD_NW STORM_SPEED STORM_DIR
1943265N19089 1943 65 NI BB NOT_NAMED 1943-09-22 00:00:00 TS 19.1000 89.2000 main 279 268 _________O____ -1 19.1000 89.2000 TC 34 4 329
1943265N19089 1943 65 NI BB NOT_NAMED 1943-09-22 03:00:00 TS 19.2584 89.1000 main 257 234 _________PO___ -1 19.3375 89.0501 TC 36 19.1000 89.2000 2 5 330
1943265N19089 1943 65 NI BB NOT_NAMED 1943-09-22 06:00:00 TS 19.5126 88.9528 main 234 201 _________OP___ -1 19.6000 88.9000 TC 39 19.3815 89.0319 2 6 332
1943265N19089 1943 65 NI BB NOT_NAMED 1943-09-22 09:00:00 TS 19.7973 88.8018 main 201 169 _________PP___ -1 19.9000 88.7500 TC 42 19.6603 88.8708 2 6 334
1943265N19089 1943 65 NI BB NOT_NAMED 1943-09-22 12:00:00 TS 20.0670 88.6622 main 169 145 _________OP___ -1 20.2000 88.6000 TC 45 19.9340 88.7243 2 6 334
1943265N19089 1943 65 NI BB NOT_NAMED 1943-09-22 15:00:00 TS 20.3288 88.5212 main 145 111 _________PO___ -1 20.4575 88.4425 TC 45 20.2000 88.6000 3 6 334
1943265N19089 1943 65 NI BB NOT_NAMED 1943-09-22 18:00:00 TS 20.5784 88.3999 main 111 89 _________OP___ -1 20.7000 88.3000 TC 45 20.4569 88.4997 3 5 338
1943265N19089 1943 65 NI BB NOT_NAMED 1943-09-22 21:00:00 TS 20.8247 88.3119 main 89 55 _________PP___ -1 20.9424 88.2222 TC 45 20.7070 88.4016 3 5 338
1943265N19089 1943 65 NI BB NOT_NAMED 1943-09-23 00:00:00 TS 21.0768 88.1889 main 55 35 _________OP___ -1 21.2000 88.1000 TC 45 20.9537 88.2777 3 6 329
1943265N19089 1943 65 NI BB NOT_NAMED 1943-09-23 03:00:00 TS 21.3538 87.9688 main 30 11 _________PO___ -1 21.5075 87.8376 TC 41 21.2000 88.1000 3 7 320
1943265N19089 1943 65 NI BB NOT_NAMED 1943-09-23 06:00:00 TS 21.6330 87.6805 main 11 0 _________OP___ -1 21.8000 87.5000 TC 37 21.4660 87.8611 3 8 313
1943265N19089 1943 65 NI BB NOT_NAMED 1943-09-23 09:00:00 TS 21.8759 87.3712 main 0 0 _________PP___ -1 22.0223 87.1798 TC 33 21.7295 87.5626 3 8 306
1943265N19089 1943 65 NI BB NOT_NAMED 1943-09-23 12:00:00 TS 22.0892 87.0039 main 0 0 _________OP___ -1 22.2000 86.8000 TC 30 21.9783 87.2079 3 9 298
1943265N19089 1943 65 NI BB NOT_NAMED 1943-09-23 15:00:00 TS 22.2788 86.5612 main 0 0 _________PO___ -1 22.3575 86.3224 TC 30 22.2000 86.8000 1 10 292
1943265N19089 1943 65 NI BB NOT_NAMED 1943-09-23 18:00:00 TS 22.4482 86.0408 main 0 0 _________OP___ -1 22.5000 85.8000 TC 30 22.3963 86.2816 1 11 289
1943265N19089 1943 65 NI BB NOT_NAMED 1943-09-23 21:00:00 TS 22.6136 85.4791 main 0 0 _________PP___ -1 22.6653 85.2327 TC 30 22.5619 85.7256 1 10 287
1943265N19089 1943 65 NI BB NOT_NAMED 1943-09-24 00:00:00 TS 22.7482 85.0033 main 0 0 _________OP___ -1 22.8000 84.8000 TC 30 22.6963 85.2066 1 7 288
1943265N19089 1943 65 NI BB NOT_NAMED 1943-09-24 03:00:00 TS 22.8324 84.7449 main 0 0 _________PO___ -1 22.8647 84.6898 TC 30 22.8000 84.8000 1 3 294
1943265N19089 1943 65 NI BB NOT_NAMED 1943-09-24 06:00:00 TS 22.8909 84.6572 main 0 0 _________OP___ -1 22.9000 84.7000 TC 30 22.8818 84.6143 1 2 306
1943265N19089 1943 65 NI BB NOT_NAMED 1943-09-24 09:00:00 TS 22.9432 84.5796 main 0 0 _________PP___ -1 22.9500 84.6150 TC 30 22.9363 84.5442 1 2 306
1943265N19089 1943 65 NI BB NOT_NAMED 1943-09-24 12:00:00 TS 22.9864 84.5135 main 0 0 _________OP___ -1 23.0000 84.5000 TC 30 22.9727 84.5271 1 2 302
1943265N19089 1943 65 NI BB NOT_NAMED 1943-09-24 15:00:00 TS 23.0288 84.4288 main 0 0 _________PO___ -1 23.0575 84.3575 TC 30 23.0000 84.5000 1 2 288
1943265N19089 1943 65 NI BB NOT_NAMED 1943-09-24 18:00:00 TS 23.0539 84.2937 main 0 0 _________OP___ -1 23.1000 84.2000 TC 30 23.0077 84.3875 1 2 275
1943265N19089 1943 65 NI BB NOT_NAMED 1943-09-24 21:00:00 TS 23.0486 84.1584 main 0 0 _________PP___ -1 23.0849 84.0649 TC 30 23.0123 84.2520 1 3 273
1943265N19089 1943 65 NI BB NOT_NAMED 1943-09-25 00:00:00 TS 23.0679 83.9953 main 0 0 _________OP___ -1 23.1000 83.9000 TC 30 23.0358 84.0905 1 4 288
1943265N19089 1943 65 NI BB NOT_NAMED 1943-09-25 03:00:00 TS 23.1600 83.7825 main 0 0 _________PO___ -1 23.2200 83.6650 TC 30 23.1000 83.9000 1 5 299
1943265N19089 1943 65 NI BB NOT_NAMED 1943-09-25 06:00:00 TS 23.3121 83.5194 main 0 0 _________OP___ -1 23.4000 83.4000 TC 30 23.2241 83.6387 1 6 304
1943265N19089 1943 65 NI BB NOT_NAMED 1943-09-25 09:00:00 TS 23.4916 83.2417 main 0 0 _________PP___ -1 23.5925 83.1276 TC 30 23.3906 83.3559 1 6 309
1943265N19089 1943 65 NI BB NOT_NAMED 1943-09-25 12:00:00 TS 23.6933 82.9975 main 0 0 _________OP___ -1 23.8000 82.9000 TC 30 23.5866 83.0950 1 6 316
1943265N19089 1943 65 NI BB NOT_NAMED 1943-09-25 15:00:00 TS 23.8962 82.8238 main 0 0 _________PO___ -1 23.9924 82.7475 TC 30 23.8000 82.9000 1 5 331
1943265N19089 1943 65 NI BB NOT_NAMED 1943-09-25 18:00:00 TS 24.1112 82.7417 main 0 0 _________OP___ -1 24.2000 82.7000 TC 30 24.0224 82.7834 1 5 351
1943265N19089 1943 65 NI BB NOT_NAMED 1943-09-25 21:00:00 TS 24.3534 82.7450 main 0 0 _________PP___ -1 24.4499 82.7475 TC 30 24.2569 82.7425 1 5 10
1943265N19089 1943 65 NI BB NOT_NAMED 1943-09-26 00:00:00 TS 24.5940 82.8402 main 0 0 _________OP___ -1 24.7000 82.9000 TC 30 24.4880 82.7804 1 5 28
1943265N19089 1943 65 NI BB NOT_NAMED 1943-09-26 03:00:00 TS 24.8113 83.0100 main 0 0 _________PO___ -1 24.9225 83.1199 TC 30 24.7000 82.9000 1 5 42
1943265N19089 1943 65 NI BB NOT_NAMED 1943-09-26 06:00:00 TS 24.9897 83.2337 main 0 0 _________OP___ -1 25.1000 83.4000 TC 30 24.8795 83.0674 1 5 54
1943265N19089 1943 65 NI BB NOT_NAMED 1943-09-26 09:00:00 TS 25.1260 83.4925 main 0 0 _________PP___ -1 25.2148 83.6702 TC 30 25.0371 83.3149 1 6 65
1943265N19089 1943 65 NI BB NOT_NAMED 1943-09-26 12:00:00 TS 25.2381 83.8150 main 0 0 _________OP___ -1 25.3000 84.0000 TC 30 25.1762 83.6300 1 7 71
1943265N19089 1943 65 NI BB NOT_NAMED 1943-09-26 15:00:00 TS 25.3500 84.2138 main 0 0 _________PO___ -1 25.4000 84.4275 TC 30 25.3000 84.0000 1 8 73
1943265N19089 1943 65 NI BB NOT_NAMED 1943-09-26 18:00:00 TS 25.4611 84.6397 main 0 0 _________OP___ -1 25.5000 84.9000 TC 30 25.4223 84.3795 1 8 74
1943265N19089 1943 65 NI BB NOT_NAMED 1943-09-26 21:00:00 TS 25.5684 85.0726 main 0 0 _________PP___ -1 25.6072 85.3350 TC 30 25.5295 84.8101 1 8 76
1943265N19089 1943 65 NI BB NOT_NAMED 1943-09-27 00:00:00 TS 25.6610 85.5429 main 0 0 _________OP___ -1 25.7000 85.8000 TC 30 25.6220 85.2857 1 9 80
1943265N19089 1943 65 NI BB NOT_NAMED 1943-09-27 03:00:00 TS 25.7287 86.0638 main 0 0 _________PO___ -1 25.7574 86.3276 TC 30 25.7000 85.8000 1 10 83
1943265N19089 1943 65 NI BB NOT_NAMED 1943-09-27 06:00:00 TS 25.7742 86.6240 main 0 0 _________OP___ -1 25.8000 86.9000 TC 30 25.7483 86.3481 1 10 85
1943265N19089 1943 65 NI BB NOT_NAMED 1943-09-27 09:00:00 TS 25.8138 87.2145 main 0 0 _________PP___ -1 25.8424 87.5001 TC 30 25.7853 86.9288 1 11 85
1943265N19089 1943 65 NI BB NOT_NAMED 1943-09-27 12:00:00 TS 25.8647 87.8100 main 0 0 _________OP___ -1 25.9000 88.1000 TC 30 25.8295 87.5201 1 11 83
1943265N19089 1943 65 NI BB NOT_NAMED 1943-09-27 15:00:00 TS 25.9386 88.3826 main 0 0 _________PO___ -1 25.9773 88.6652 TC 30 25.9000 88.1000 1 10 79
1943265N19089 1943 65 NI BB NOT_NAMED 1943-09-27 18:00:00 TS 26.0491 88.8870 main 0 0 _________OP___ -1 26.1000 89.2000 TC 30 26.0109 88.6522 1 9 74
1943265N19089 1943 65 NI BB NOT_NAMED 1943-09-27 21:00:00 TS 26.2066 89.3911 main 0 0 _________PP___ -1 26.2828 89.7071 TC 30 26.1558 89.1805 1 9 69
1943265N19089 1943 65 NI BB NOT_NAMED 1943-09-28 00:00:00 TS 26.3818 89.8624 main 0 0 _________OP___ -1 26.5000 90.2000 TC 30 26.3228 89.6936 1 8 68
1943265N19089 1943 65 NI BB NOT_NAMED 1943-09-28 03:00:00 NR 26.5000 90.2000 main 0 __________O___ -1 TC 26.5000 90.2000 1 6 69

IBTrACS Databaseについて

本データベースは、米国NOAAが公開する1842年以降の世界の熱帯低気圧のベストトラックデータアーカイブInternational Best Track Archive for Climate Stewardship (IBTrACS)を、ウェブで閲覧しやすい形式に変換したものです。

最終更新日:2021-10-25